createdAt,value
2019-06-07T00:01:20.989Z,18.60
2019-06-07T00:03:51.748Z,17.40
2019-06-07T00:06:24.923Z,17.97
2019-06-07T00:08:52.538Z,17.23
2019-06-07T00:11:22.066Z,17.27
2019-06-07T00:13:53.017Z,18.27
2019-06-07T00:16:23.446Z,17.77
2019-06-07T00:18:53.023Z,17.60
2019-06-07T00:22:12.028Z,17.75
2019-06-07T00:23:53.785Z,18.60
2019-06-07T00:26:23.162Z,19.30
2019-06-07T00:28:52.703Z,18.87
2019-06-07T00:31:24.495Z,18.35
2019-06-07T00:33:53.156Z,17.97
2019-06-07T00:36:23.441Z,17.27
2019-06-07T00:38:52.846Z,16.80
2019-06-07T00:41:23.083Z,18.17
2019-06-07T00:43:52.705Z,16.30
2019-06-07T00:46:25.268Z,17.92
2019-06-07T00:48:53.185Z,19.13
2019-06-07T00:51:24.091Z,17.67
2019-06-07T00:53:53.781Z,17.30
2019-06-07T00:56:23.544Z,18.03
2019-06-07T00:59:10.284Z,17.47
2019-06-07T01:01:25.545Z,17.57
2019-06-07T01:03:55.063Z,19.43
2019-06-07T01:06:25.054Z,20.50
2019-06-07T01:08:54.688Z,19.35
2019-06-07T01:11:26.095Z,18.73
2019-06-07T01:13:55.143Z,20.13
2019-06-07T01:16:26.423Z,21.60
2019-06-07T01:18:56.238Z,20.70
2019-06-07T01:21:29.627Z,18.77
2019-06-07T01:24:11.426Z,17.83
2019-06-07T01:26:30.415Z,18.60
2019-06-07T01:28:59.162Z,18.53
2019-06-07T01:31:31.499Z,18.70
2019-06-07T01:34:00.156Z,18.43
2019-06-07T01:36:31.091Z,18.82
2019-06-07T01:39:01.088Z,20.40
2019-06-07T01:41:32.119Z,19.80
2019-06-07T01:44:01.826Z,19.93
2019-06-07T01:46:31.580Z,19.13
2019-06-07T01:49:01.004Z,19.03
2019-06-07T01:51:30.912Z,20.13
2019-06-07T01:54:48.655Z,20.83
2019-06-07T01:56:32.307Z,19.90
2019-06-07T01:59:01.853Z,19.70
2019-06-07T02:01:35.145Z,19.60
2019-06-07T02:04:03.489Z,21.07
2019-06-07T02:06:32.978Z,20.70
2019-06-07T02:09:02.606Z,19.83
2019-06-07T02:11:33.645Z,18.60
2019-06-07T02:14:05.581Z,21.20
2019-06-07T02:16:34.969Z,23.40
2019-06-07T02:19:04.418Z,22.13
2019-06-07T02:21:34.687Z,21.97
2019-06-07T02:24:04.326Z,18.83
2019-06-07T02:26:34.038Z,19.77
2019-06-07T02:29:03.408Z,21.73
2019-06-07T02:31:39.096Z,21.70
2019-06-07T02:34:04.175Z,21.37
2019-06-07T02:36:41.067Z,22.42
2019-06-07T02:39:07.016Z,23.00
2019-06-07T02:41:39.897Z,22.87
2019-06-07T02:44:07.965Z,23.53
2019-06-07T02:46:46.599Z,22.90
2019-06-07T02:49:08.401Z,22.20
2019-06-07T02:51:41.674Z,21.17
2019-06-07T02:54:09.125Z,19.60
2019-06-07T02:56:53.886Z,21.20
2019-06-07T02:59:09.871Z,20.75
2019-06-07T03:01:42.259Z,21.30
2019-06-07T03:04:11.713Z,20.30
2019-06-07T03:06:43.921Z,22.77
2019-06-07T03:09:12.347Z,23.07
2019-06-07T03:11:43.122Z,22.20
2019-06-07T03:14:12.774Z,22.27
2019-06-07T03:16:48.180Z,22.40
2019-06-07T03:19:26.915Z,20.43
2019-06-07T03:21:56.279Z,20.93
2019-06-07T03:24:29.581Z,21.68
2019-06-07T03:29:28.897Z,22.50
2019-06-07T03:31:59.358Z,22.50
2019-06-07T03:34:32.905Z,21.45
2019-06-07T03:37:00.405Z,23.90
2019-06-07T03:39:31.391Z,24.50
2019-06-07T03:42:06.510Z,23.07
2019-06-07T03:44:35.857Z,23.33
2019-06-07T03:47:03.452Z,22.87
2019-06-07T03:49:37.473Z,24.45
2019-06-07T03:52:04.439Z,23.03
2019-06-07T03:54:36.964Z,22.45
2019-06-07T03:57:05.443Z,24.13
2019-06-07T03:59:37.423Z,25.33
2019-06-07T04:02:06.251Z,23.30
2019-06-07T04:04:38.475Z,26.77
2019-06-07T04:07:06.966Z,24.57
2019-06-07T04:09:41.905Z,25.33
2019-06-07T04:12:07.510Z,24.73
2019-06-07T04:14:38.474Z,25.50
2019-06-07T04:17:08.229Z,26.67
2019-06-07T04:19:42.812Z,25.07
2019-06-07T04:22:08.684Z,26.20
2019-06-07T04:24:41.866Z,27.90
2019-06-07T04:27:09.566Z,28.00
2019-06-07T04:30:03.035Z,29.10
2019-06-07T04:32:10.256Z,27.87
2019-06-07T04:34:43.280Z,28.53
2019-06-07T04:37:12.316Z,27.53
2019-06-07T04:39:45.085Z,26.40
2019-06-07T04:42:15.808Z,29.82
2019-06-07T04:44:46.705Z,28.73
2019-06-07T04:47:16.651Z,28.10
2019-06-07T04:49:48.444Z,32.20
2019-06-07T04:52:18.465Z,29.90
2019-06-07T04:54:47.846Z,26.93
2019-06-07T04:57:17.511Z,29.90
2019-06-07T05:00:12.119Z,30.20
2019-06-07T05:02:22.077Z,28.60
2019-06-07T05:04:51.426Z,27.70
2019-06-07T05:07:20.847Z,27.55
2019-06-07T05:09:50.589Z,27.67
2019-06-07T05:12:20.516Z,28.25
2019-06-07T05:14:50.203Z,27.75
2019-06-07T05:17:19.586Z,26.77
2019-06-07T05:19:49.268Z,27.87
2019-06-07T05:22:18.671Z,26.37
2019-06-07T05:24:48.622Z,27.57
2019-06-07T05:27:18.312Z,27.93
2019-06-07T05:30:08.841Z,28.77
2019-06-07T05:32:19.737Z,28.00
2019-06-07T05:34:49.302Z,26.27
2019-06-07T05:37:18.678Z,26.43
2019-06-07T05:39:48.348Z,26.47
2019-06-07T05:42:17.772Z,26.23
2019-06-07T05:44:47.370Z,25.27
2019-06-07T05:47:16.751Z,27.43
2019-06-07T05:49:47.414Z,26.33
2019-06-07T05:52:16.927Z,25.70
2019-06-07T05:54:47.115Z,25.53
2019-06-07T05:57:17.706Z,25.33
2019-06-07T05:59:47.847Z,27.83
2019-06-07T06:02:22.768Z,24.73
2019-06-07T06:04:49.500Z,26.13
2019-06-07T06:07:19.405Z,25.37
2019-06-07T06:09:48.770Z,24.40
2019-06-07T06:12:33.995Z,24.37
2019-06-07T06:14:49.582Z,24.20
2019-06-07T06:17:18.905Z,26.23
2019-06-07T06:19:53.015Z,26.80
2019-06-07T06:22:20.662Z,24.30
2019-06-07T06:25:29.917Z,23.80
2019-06-07T06:28:02.604Z,23.45
2019-06-07T06:29:52.702Z,24.07
2019-06-07T06:34:55.687Z,23.53
2019-06-07T06:37:24.727Z,21.75
2019-06-07T06:39:54.094Z,21.50
2019-06-07T06:42:23.794Z,21.43
2019-06-07T06:44:54.199Z,21.43
2019-06-07T06:47:25.444Z,20.62
2019-06-07T06:49:54.832Z,20.30
2019-06-07T06:52:24.740Z,22.05
2019-06-07T06:55:00.495Z,19.50
2019-06-07T07:00:56.833Z,20.10
2019-06-07T07:03:54.223Z,18.98
2019-06-07T07:05:54.427Z,19.20
2019-06-07T07:08:22.716Z,20.17
2019-06-07T07:11:00.633Z,17.05
2019-06-07T07:14:09.990Z,15.97
2019-06-07T07:16:54.558Z,17.20
2019-06-07T07:19:20.859Z,16.93
2019-06-07T07:21:53.112Z,13.00
2019-06-07T07:24:22.517Z,12.43
2019-06-07T07:26:54.048Z,11.87
2019-06-07T07:29:23.037Z,11.93
2019-06-07T07:31:56.207Z,12.30
2019-06-07T07:34:34.634Z,13.10
2019-06-07T07:36:59.523Z,9.73
2019-06-07T07:39:26.046Z,8.50
2019-06-07T07:48:30.056Z,10.47
2019-06-07T07:51:01.338Z,9.83
2019-06-07T07:53:47.701Z,9.83
2019-06-07T07:56:02.542Z,10.23
2019-06-07T07:58:32.535Z,10.38
2019-06-07T08:01:10.111Z,13.03
2019-06-07T08:03:32.995Z,10.83
2019-06-07T08:06:02.612Z,9.27
2019-06-07T08:08:32.261Z,10.03
2019-06-07T08:11:02.411Z,8.47
2019-06-07T08:13:32.921Z,9.73
2019-06-07T08:16:10.793Z,9.68
2019-06-07T08:18:33.689Z,9.50
2019-06-07T08:21:21.900Z,10.30
2019-06-07T08:23:34.552Z,9.33
2019-06-07T08:26:03.939Z,9.40
2019-06-07T08:28:33.609Z,11.05
2019-06-07T08:31:07.008Z,9.83
2019-06-07T08:33:34.169Z,9.30
2019-06-07T08:36:15.090Z,8.07
2019-06-07T08:38:47.699Z,9.27
2019-06-07T08:41:11.929Z,7.70
2019-06-07T08:43:36.849Z,8.10
2019-06-07T08:46:07.885Z,9.60
2019-06-07T08:48:37.690Z,9.40
2019-06-07T08:51:08.432Z,9.00
2019-06-07T08:53:38.112Z,7.77
2019-06-07T08:56:11.107Z,9.10
2019-06-07T08:58:39.098Z,7.40
2019-06-07T09:01:09.253Z,7.10
2019-06-07T09:03:39.081Z,8.67
2019-06-07T09:06:54.037Z,7.47
2019-06-07T09:08:39.860Z,7.20
2019-06-07T09:11:11.126Z,7.27
2019-06-07T09:13:40.692Z,7.67
2019-06-07T09:16:10.086Z,7.60
2019-06-07T09:18:44.207Z,9.83
2019-06-07T09:21:12.003Z,7.13
2019-06-07T09:23:41.665Z,8.77
2019-06-07T09:26:18.145Z,7.93
2019-06-07T09:28:42.357Z,8.33
2019-06-07T09:31:12.965Z,7.37
2019-06-07T09:33:42.402Z,7.47
2019-06-07T09:36:13.132Z,8.93
2019-06-07T09:38:43.012Z,7.27
2019-06-07T09:41:12.373Z,9.33
2019-06-07T09:46:15.958Z,7.70
2019-06-07T09:51:19.709Z,7.90
2019-06-07T09:53:47.131Z,8.70
2019-06-07T09:56:17.191Z,8.90
2019-06-07T09:58:52.127Z,7.47
2019-06-07T10:01:19.196Z,9.47
2019-06-07T10:03:48.885Z,7.73
2019-06-07T10:06:18.273Z,8.37
2019-06-07T10:11:19.116Z,8.07
2019-06-07T10:13:48.480Z,7.73
2019-06-07T10:16:18.221Z,8.50
2019-06-07T10:18:47.911Z,8.77
2019-06-07T10:21:17.309Z,9.70
2019-06-07T10:23:47.122Z,8.27
2019-06-07T10:26:17.217Z,7.33
2019-06-07T10:28:46.882Z,8.08
2019-06-07T10:31:17.344Z,6.53
2019-06-07T10:33:46.944Z,6.63
2019-06-07T10:36:17.304Z,6.72
2019-06-07T10:38:47.140Z,7.03
2019-06-07T10:41:17.254Z,8.50
2019-06-07T10:43:46.923Z,6.58
2019-06-07T10:46:17.918Z,6.55
2019-06-07T10:48:47.384Z,6.43
2019-06-07T10:51:17.326Z,7.20
2019-06-07T10:53:47.012Z,7.30
2019-06-07T10:56:17.271Z,10.48
2019-06-07T10:58:46.925Z,7.83
2019-06-07T11:01:17.397Z,5.90
2019-06-07T11:03:46.999Z,6.47
2019-06-07T11:06:17.380Z,5.95
2019-06-07T11:08:46.954Z,5.67
2019-06-07T11:11:17.309Z,5.15
2019-06-07T11:13:46.969Z,5.78
2019-06-07T11:16:17.423Z,5.30
2019-06-07T11:18:47.031Z,5.60
2019-06-07T11:21:18.631Z,5.20
2019-06-07T11:23:48.012Z,6.13
2019-06-07T11:26:18.638Z,5.80
2019-06-07T11:28:49.109Z,6.17
2019-06-07T11:31:18.951Z,6.00
2019-06-07T11:33:48.316Z,5.93
2019-06-07T11:36:18.897Z,5.67
2019-06-07T11:38:48.248Z,6.80
2019-06-07T11:41:17.889Z,6.00
2019-06-07T11:43:47.277Z,4.97
2019-06-07T11:46:17.472Z,5.42
2019-06-07T11:48:47.762Z,4.30
2019-06-07T11:51:18.834Z,4.90
2019-06-07T11:53:48.248Z,4.50
2019-06-07T11:56:18.150Z,6.50
2019-06-07T11:58:47.568Z,4.80
2019-06-07T12:01:18.672Z,5.57
2019-06-07T12:03:48.163Z,4.53
2019-06-07T12:06:18.110Z,4.73
2019-06-07T12:08:47.579Z,4.60
2019-06-07T12:11:18.524Z,4.33
2019-06-07T12:13:48.234Z,4.60
2019-06-07T12:16:17.605Z,4.07
2019-06-07T12:18:47.168Z,4.10
2019-06-07T12:21:18.053Z,3.45
2019-06-07T12:23:47.448Z,5.20
2019-06-07T12:26:18.697Z,4.50
2019-06-07T12:28:48.245Z,4.77
2019-06-07T12:31:19.253Z,4.97
2019-06-07T12:33:48.622Z,4.93
2019-06-07T12:36:19.837Z,5.53
2019-06-07T12:38:49.295Z,4.20
2019-06-07T12:41:20.253Z,4.63
2019-06-07T12:43:49.710Z,3.70
2019-06-07T12:46:24.889Z,5.20
2019-06-07T12:48:50.434Z,4.73
2019-06-07T12:51:21.246Z,4.65
2019-06-07T12:53:50.653Z,4.93
2019-06-07T12:56:20.307Z,5.33
2019-06-07T12:58:49.689Z,4.80
2019-06-07T13:01:20.851Z,6.47
2019-06-07T13:03:50.428Z,4.63
2019-06-07T13:06:19.786Z,4.77
2019-06-07T13:08:49.220Z,5.00
2019-06-07T13:11:24.312Z,6.07
2019-06-07T13:13:50.233Z,3.52
2019-06-07T13:16:19.985Z,4.20
2019-06-07T13:18:50.440Z,4.70
2019-06-07T13:21:20.254Z,5.20
2019-06-07T13:23:50.614Z,4.00
2019-06-07T13:26:20.619Z,6.70
2019-06-07T13:28:50.234Z,4.55
2019-06-07T13:31:20.964Z,5.40
2019-06-07T13:37:00.734Z,4.60
2019-06-07T13:39:30.427Z,4.43
2019-06-07T13:41:59.789Z,5.10
2019-06-07T13:44:29.503Z,4.67
2019-06-07T13:46:59.164Z,4.50
2019-06-07T13:49:28.780Z,4.63
2019-06-07T13:51:58.311Z,4.83
2019-06-07T13:54:27.873Z,4.20
2019-06-07T13:57:02.270Z,4.70
2019-06-07T13:59:28.791Z,4.60
2019-06-07T14:01:58.316Z,4.83
2019-06-07T14:04:29.233Z,4.37
2019-06-07T14:06:58.543Z,5.10
2019-06-07T14:09:29.597Z,5.53
2019-06-07T14:12:00.589Z,5.70
2019-06-07T14:14:30.988Z,5.80
2019-06-07T14:17:00.397Z,5.37
2019-06-07T14:19:30.742Z,5.10
2019-06-07T14:22:00.429Z,5.40
2019-06-07T14:24:31.108Z,5.30
2019-06-07T14:27:06.529Z,5.20
2019-06-07T14:29:36.869Z,8.10
2019-06-07T14:32:07.458Z,5.53
2019-06-07T14:34:37.794Z,5.80
2019-06-07T14:37:07.441Z,5.83
2019-06-07T14:39:36.823Z,5.60
2019-06-07T14:42:09.773Z,5.70
2019-06-07T14:44:37.770Z,6.20
2019-06-07T14:47:07.467Z,5.53
2019-06-07T14:49:36.828Z,6.47
2019-06-07T14:52:06.656Z,5.50
2019-06-07T14:54:39.033Z,5.73
2019-06-07T14:57:07.530Z,4.70
2019-06-07T14:59:36.896Z,5.00
2019-06-07T15:02:06.690Z,5.30
2019-06-07T15:04:39.778Z,4.97
2019-06-07T15:07:11.085Z,5.47
2019-06-07T15:09:40.449Z,5.47
2019-06-07T15:12:24.106Z,5.60
2019-06-07T15:14:41.167Z,4.73
2019-06-07T15:17:10.559Z,5.13
2019-06-07T15:19:39.919Z,4.87
2019-06-07T15:22:09.482Z,4.90
2019-06-07T15:24:40.555Z,5.23
2019-06-07T15:27:10.976Z,5.50
2019-06-07T15:29:40.567Z,6.97
2019-06-07T15:32:09.942Z,5.93
2019-06-07T15:34:39.517Z,5.10
2019-06-07T15:37:08.899Z,5.57
2019-06-07T15:39:38.755Z,5.10
2019-06-07T15:42:08.216Z,5.67
2019-06-07T15:44:37.582Z,5.57
2019-06-07T15:47:06.959Z,4.73
2019-06-07T15:49:36.543Z,4.53
2019-06-07T15:52:05.922Z,5.33
2019-06-07T15:54:36.462Z,5.00
2019-06-07T15:57:05.859Z,5.00
2019-06-07T15:59:35.821Z,5.25
2019-06-07T16:02:06.555Z,5.07
2019-06-07T16:04:37.656Z,6.17
2019-06-07T16:07:07.033Z,5.17
2019-06-07T16:09:36.521Z,5.10
2019-06-07T16:12:05.961Z,5.03
2019-06-07T16:14:36.956Z,6.08
2019-06-07T16:17:06.679Z,5.03
2019-06-07T16:19:41.043Z,5.03
2019-06-07T16:22:07.114Z,5.30
2019-06-07T16:24:37.654Z,4.70
2019-06-07T16:27:07.093Z,5.10
2019-06-07T16:29:36.671Z,5.60
2019-06-07T16:35:13.513Z,5.47
2019-06-07T16:37:43.174Z,6.40
2019-06-07T16:40:15.565Z,5.63
2019-06-07T16:42:45.256Z,5.73
2019-06-07T16:45:15.534Z,5.67
2019-06-07T16:47:47.461Z,6.10
2019-06-07T16:50:16.056Z,6.70
2019-06-07T16:55:45.933Z,6.10
2019-06-07T16:58:15.655Z,5.87
2019-06-07T17:00:46.478Z,7.10
2019-06-07T17:03:15.925Z,6.87
2019-06-07T17:05:48.410Z,5.80
2019-06-07T17:08:18.099Z,7.40
2019-06-07T17:10:49.113Z,8.87
2019-06-07T17:13:32.519Z,7.40
2019-06-07T17:15:49.919Z,7.03
2019-06-07T17:18:19.946Z,7.65
2019-06-07T17:20:49.519Z,7.00
2019-06-07T17:23:19.046Z,8.03
2019-06-07T17:25:49.775Z,7.23
2019-06-07T17:28:20.211Z,8.33
2019-06-07T17:30:50.361Z,8.43
2019-06-07T17:33:19.958Z,8.20
2019-06-07T17:35:50.645Z,8.00
2019-06-07T17:38:20.083Z,7.70
2019-06-07T17:40:51.110Z,7.77
2019-06-07T17:43:20.813Z,8.37
2019-06-07T17:45:52.200Z,8.63
2019-06-07T17:48:23.961Z,8.70
2019-06-07T17:50:52.867Z,8.60
2019-06-07T17:53:22.277Z,8.07
2019-06-07T17:55:52.402Z,8.87
2019-06-07T17:58:21.749Z,8.70
2019-06-07T18:00:53.060Z,9.20
2019-06-07T18:03:22.603Z,8.73
2019-06-07T18:05:53.825Z,8.70
2019-06-07T18:08:24.756Z,9.10
2019-06-07T18:10:54.310Z,9.27
2019-06-07T18:13:23.949Z,8.98
2019-06-07T18:15:58.786Z,8.33
2019-06-07T18:18:24.389Z,8.87
2019-06-07T18:20:53.765Z,9.50
2019-06-07T18:23:23.261Z,8.60
2019-06-07T18:25:52.678Z,9.10
2019-06-07T18:28:22.257Z,9.60
2019-06-07T18:31:12.625Z,9.00
2019-06-07T18:33:55.147Z,9.50
2019-06-07T18:36:27.728Z,9.03
2019-06-07T18:38:59.294Z,9.50
2019-06-07T18:41:28.767Z,10.50
2019-06-07T18:43:59.355Z,13.63
2019-06-07T18:46:28.744Z,10.90
2019-06-07T18:48:58.787Z,11.17
2019-06-07T18:51:28.770Z,12.30
2019-06-07T18:53:58.150Z,5.93
2019-06-07T18:56:27.551Z,6.83
2019-06-07T18:58:56.931Z,7.30
2019-06-07T19:01:27.391Z,8.37
2019-06-07T19:03:58.137Z,5.63
2019-06-07T19:06:27.680Z,4.13
2019-06-07T19:08:59.321Z,4.00
2019-06-07T19:11:28.889Z,8.10
2019-06-07T19:13:59.317Z,4.60
2019-06-07T19:16:28.705Z,4.23
2019-06-07T19:18:58.366Z,6.22
2019-06-07T19:21:27.735Z,5.23
2019-06-07T19:23:58.029Z,4.08
2019-06-07T19:26:27.649Z,5.60
2019-06-07T19:28:57.021Z,6.67
2019-06-07T19:31:26.588Z,5.60
2019-06-07T19:33:57.170Z,6.80
2019-06-07T19:36:26.583Z,6.10
2019-06-07T19:38:55.975Z,8.90
2019-06-07T19:41:25.659Z,6.20
2019-06-07T19:43:56.223Z,5.22
2019-06-07T19:46:25.619Z,9.57
2019-06-07T19:48:56.546Z,5.70
2019-06-07T19:51:25.909Z,2.57
2019-06-07T19:53:57.111Z,2.95
2019-06-07T19:56:26.683Z,2.23
2019-06-07T19:58:57.521Z,2.37
2019-06-07T20:01:26.966Z,2.60
2019-06-07T20:03:57.953Z,2.50
2019-06-07T20:06:27.603Z,2.10
2019-06-07T20:08:58.675Z,5.00
2019-06-07T20:11:28.125Z,4.00
2019-06-07T20:13:58.546Z,4.73
2019-06-07T20:16:27.953Z,4.03
2019-06-07T20:18:58.131Z,4.27
2019-06-07T20:21:27.897Z,6.93
2019-06-07T20:24:00.212Z,4.37
2019-06-07T20:26:28.962Z,3.23
2019-06-07T20:28:59.284Z,3.87
2019-06-07T20:31:28.709Z,2.90
2019-06-07T20:33:58.689Z,3.40
2019-06-07T20:36:28.034Z,3.37
2019-06-07T20:38:58.012Z,3.85
2019-06-07T20:41:27.690Z,6.42
2019-06-07T20:43:57.632Z,5.87
2019-06-07T20:46:27.071Z,4.20
2019-06-07T20:48:58.030Z,4.83
2019-06-07T20:51:27.774Z,4.60
2019-06-07T20:53:58.476Z,6.03
2019-06-07T20:56:27.904Z,3.80
2019-06-07T20:58:58.438Z,3.43
2019-06-07T21:01:27.868Z,3.80
2019-06-07T21:03:58.986Z,4.10
2019-06-07T21:06:28.357Z,4.20
2019-06-07T21:08:59.252Z,3.73
2019-06-07T21:11:28.921Z,2.90
2019-06-07T21:13:58.297Z,4.40
2019-06-07T21:16:27.875Z,4.67
2019-06-07T21:18:57.261Z,3.43
2019-06-07T21:21:26.878Z,3.30
2019-06-07T21:23:56.258Z,3.37
2019-06-07T21:26:26.941Z,2.30
2019-06-07T21:28:56.361Z,2.27
2019-06-07T21:31:25.960Z,2.77
2019-06-07T21:33:56.252Z,2.05
2019-06-07T21:36:25.880Z,1.80
2019-06-07T21:38:56.264Z,2.00
2019-06-07T21:41:25.982Z,3.77
2019-06-07T21:43:56.322Z,2.80
2019-06-07T21:46:25.949Z,3.30
2019-06-07T21:48:56.275Z,1.90
2019-06-07T21:51:26.070Z,1.67
2019-06-07T21:53:56.232Z,1.70
2019-06-07T21:56:25.919Z,2.00
2019-06-07T21:58:56.342Z,1.82
2019-06-07T22:01:27.512Z,1.60
2019-06-07T22:03:57.213Z,1.30
2019-06-07T22:06:26.935Z,1.83
2019-06-07T22:08:56.340Z,2.23
2019-06-07T22:11:26.308Z,1.90
2019-06-07T22:13:56.391Z,1.45
2019-06-07T22:16:29.225Z,1.83
2019-06-07T22:18:57.337Z,1.37
2019-06-07T22:21:26.944Z,1.40
2019-06-07T22:23:56.351Z,3.50
2019-06-07T22:26:26.062Z,1.70
2019-06-07T22:28:56.407Z,1.47
2019-06-07T22:31:26.081Z,1.77
2019-06-07T22:33:56.365Z,1.90
2019-06-07T22:36:25.964Z,1.80
2019-06-07T22:38:56.314Z,1.77
2019-06-07T22:41:25.962Z,2.10
2019-06-07T22:43:56.745Z,2.30
2019-06-07T22:46:36.964Z,1.77
2019-06-07T22:48:57.336Z,1.50
2019-06-07T22:51:27.139Z,2.50
2019-06-07T22:53:56.516Z,1.90
2019-06-07T22:56:39.589Z,2.10
2019-06-07T22:59:13.709Z,1.62
2019-06-07T23:01:40.571Z,3.83
2019-06-07T23:04:10.440Z,2.58
2019-06-07T23:06:40.068Z,2.50
2019-06-07T23:09:10.838Z,1.53
2019-06-07T23:11:40.448Z,1.40
2019-06-07T23:14:11.215Z,1.90
2019-06-07T23:16:54.360Z,1.97
2019-06-07T23:19:12.007Z,1.40
2019-06-07T23:21:42.372Z,1.30
2019-06-07T23:24:12.044Z,3.33
2019-06-07T23:26:41.493Z,1.17
2019-06-07T23:29:10.877Z,1.40
2019-06-07T23:31:40.452Z,1.50
2019-06-07T23:34:10.504Z,1.10
2019-06-07T23:36:39.879Z,1.53
2019-06-07T23:39:10.882Z,4.30
2019-06-07T23:41:40.523Z,1.33
2019-06-07T23:44:11.002Z,1.57
2019-06-07T23:46:40.498Z,4.90
2019-06-07T23:49:09.881Z,1.33
2019-06-07T23:51:39.425Z,0.93
2019-06-07T23:54:09.089Z,1.77
2019-06-07T23:56:38.604Z,1.97
2019-06-07T23:59:08.260Z,1.50
